Terminal Aerodrome Forecast
Issued by NWS

Home | Current Version | Previous Version | Text Only | Print | Product List | Glossary On
Versions: 1 2 3 4 5 6 7 8 9 10 11 12 13 14 15 16 17
000
FTUS46 KMFR 191400 AAB
TAFRBG
TAF AMD
KRBG 191417Z 1914/2012 00000KT 1/4SM FG OVC002
      TEMPO 1915/1916 1SM BR BKN002 BKN080
     FM191600 18008KT P6SM SCT025 BKN040 OVC080
     FM191800 21011KT P6SM -RA BKN025 OVC040
     FM192100 25008KT P6SM -SHRA BKN025 BKN040
     FM200000 32006KT P6SM SCT025 BKN050
     FM200800 00000KT 6SM BR BKN008=

USA.gov is the U.S. government's official web portal to all federal, state and local government web resources and services.